createdAt,value
2023-02-01T00:01:27.822Z,6.83
2023-02-01T00:03:55.758Z,7.10
2023-02-01T00:06:24.146Z,6.91
2023-02-01T00:08:55.977Z,6.80
2023-02-01T00:11:25.405Z,6.55
2023-02-01T00:13:53.640Z,6.50
2023-02-01T00:16:25.294Z,6.62
2023-02-01T00:18:59.413Z,6.53
2023-02-01T00:21:28.584Z,6.46
2023-02-01T00:23:56.843Z,6.43
2023-02-01T00:26:46.585Z,6.27
2023-02-01T00:29:18.178Z,6.30
2023-02-01T00:31:47.231Z,6.37
2023-02-01T00:34:17.689Z,6.32
2023-02-01T00:36:46.306Z,6.30
2023-02-01T00:39:14.203Z,6.25
2023-02-01T00:41:42.404Z,6.42
2023-02-01T00:44:10.531Z,6.41
2023-02-01T00:46:40.020Z,6.55
2023-02-01T00:49:09.403Z,6.49
2023-02-01T00:51:37.730Z,6.36
2023-02-01T00:54:05.644Z,6.51
2023-02-01T00:56:33.946Z,6.31
2023-02-01T00:59:01.844Z,6.32
2023-02-01T01:01:30.518Z,6.21
2023-02-01T01:04:00.778Z,6.15
2023-02-01T01:06:31.657Z,6.22
2023-02-01T01:09:02.274Z,6.46
2023-02-01T01:11:33.321Z,6.17
2023-02-01T01:14:01.476Z,6.05
2023-02-01T01:16:32.677Z,6.02
2023-02-01T01:19:01.227Z,5.99
2023-02-01T01:21:30.265Z,5.86
2023-02-01T01:23:58.305Z,6.07
2023-02-01T01:26:29.308Z,6.19
2023-02-01T01:28:59.666Z,6.27
2023-02-01T01:31:28.303Z,6.00
2023-02-01T01:33:58.820Z,5.99
2023-02-01T01:36:28.251Z,6.23
2023-02-01T01:38:56.209Z,6.32
2023-02-01T01:41:27.576Z,6.12
2023-02-01T01:44:02.342Z,5.78
2023-02-01T01:46:32.600Z,5.82
2023-02-01T01:49:25.291Z,6.15
2023-02-01T01:52:00.786Z,5.75
2023-02-01T01:54:42.346Z,5.76
2023-02-01T01:57:15.943Z,5.56
2023-02-01T01:59:48.344Z,5.59
2023-02-01T02:02:17.826Z,5.69
2023-02-01T02:04:47.437Z,5.58
2023-02-01T02:07:27.756Z,5.80
2023-02-01T02:10:00.857Z,5.65
2023-02-01T02:12:30.130Z,5.45
2023-02-01T02:14:58.131Z,5.78
2023-02-01T02:17:57.686Z,5.36
2023-02-01T02:20:50.422Z,5.58
2023-02-01T02:23:24.807Z,5.52
2023-02-01T02:26:10.753Z,5.62
2023-02-01T02:29:08.991Z,5.68
2023-02-01T02:32:16.664Z,5.43
2023-02-01T02:34:53.570Z,5.42
2023-02-01T02:37:39.562Z,5.28
2023-02-01T02:40:17.513Z,5.27
2023-02-01T02:43:16.253Z,5.44
2023-02-01T02:46:11.022Z,5.46
2023-02-01T02:48:43.452Z,5.43
2023-02-01T02:51:33.288Z,5.47
2023-02-01T02:54:26.875Z,5.47
2023-02-01T02:57:16.826Z,5.43
2023-02-01T03:00:07.120Z,5.40
2023-02-01T03:02:54.714Z,5.68
2023-02-01T03:05:22.916Z,5.47
2023-02-01T03:08:27.080Z,5.44
2023-02-01T03:11:11.854Z,5.25
2023-02-01T03:13:51.181Z,5.23
2023-02-01T03:16:33.186Z,5.62
2023-02-01T03:19:25.319Z,5.71
2023-02-01T03:22:16.675Z,5.32
2023-02-01T03:24:53.057Z,5.30
2023-02-01T03:27:37.289Z,5.34
2023-02-01T03:30:09.336Z,5.12
2023-02-01T03:33:00.430Z,5.14
2023-02-01T03:36:00.200Z,5.25
2023-02-01T03:38:31.775Z,5.18
2023-02-01T03:41:17.312Z,5.21
2023-02-01T03:44:04.296Z,5.25
2023-02-01T03:46:38.976Z,5.32
2023-02-01T03:49:11.879Z,5.26
2023-02-01T03:51:42.323Z,5.20
2023-02-01T03:54:16.350Z,5.26
2023-02-01T03:56:47.529Z,5.35
2023-02-01T03:59:16.488Z,5.12
2023-02-01T04:01:44.434Z,5.18
2023-02-01T04:04:21.196Z,5.16
2023-02-01T04:06:53.318Z,5.18
2023-02-01T04:09:22.759Z,5.25
2023-02-01T04:11:50.809Z,5.51
2023-02-01T04:14:19.227Z,5.27
2023-02-01T04:16:47.360Z,5.06
2023-02-01T04:19:16.317Z,5.22
2023-02-01T04:21:44.435Z,5.23
2023-02-01T04:24:12.940Z,5.14
2023-02-01T04:26:41.023Z,4.85
2023-02-01T04:29:11.395Z,4.94
2023-02-01T04:31:39.622Z,4.96
2023-02-01T04:34:08.209Z,4.96
2023-02-01T04:36:36.298Z,4.82
2023-02-01T04:39:04.785Z,4.87
2023-02-01T04:41:32.788Z,4.99
2023-02-01T04:44:01.161Z,5.08
2023-02-01T04:46:29.154Z,5.16
2023-02-01T04:48:58.653Z,4.96
2023-02-01T04:51:26.627Z,4.89
2023-02-01T04:53:57.185Z,5.20
2023-02-01T04:56:25.138Z,4.93
2023-02-01T04:58:54.269Z,5.07
2023-02-01T05:01:22.405Z,4.87
2023-02-01T05:03:50.747Z,4.84
2023-02-01T05:06:18.806Z,4.80
2023-02-01T05:08:47.170Z,4.71
2023-02-01T05:11:38.410Z,4.83
2023-02-01T05:14:08.253Z,4.81
2023-02-01T05:16:36.647Z,4.69
2023-02-01T05:19:04.988Z,4.70
2023-02-01T05:21:32.948Z,4.86
2023-02-01T05:24:21.780Z,4.71
2023-02-01T05:26:50.773Z,4.84
2023-02-01T05:29:19.598Z,4.75
2023-02-01T05:31:48.445Z,4.63
2023-02-01T05:34:17.177Z,4.71
2023-02-01T05:36:45.294Z,4.58
2023-02-01T05:39:15.157Z,4.55
2023-02-01T05:41:43.188Z,4.68
2023-02-01T05:44:12.308Z,4.64
2023-02-01T05:46:40.395Z,4.50
2023-02-01T05:49:09.477Z,4.45
2023-02-01T05:51:37.406Z,4.55
2023-02-01T05:54:05.847Z,4.62
2023-02-01T05:56:33.786Z,4.44
2023-02-01T05:59:05.137Z,4.44
2023-02-01T06:01:33.106Z,4.36
2023-02-01T06:04:01.404Z,4.18
2023-02-01T06:06:29.671Z,4.46
2023-02-01T06:08:58.199Z,4.39
2023-02-01T06:11:33.500Z,4.49
2023-02-01T06:14:02.146Z,4.40
2023-02-01T06:16:30.185Z,4.45
2023-02-01T06:18:59.382Z,4.70
2023-02-01T06:21:27.354Z,4.76
2023-02-01T06:23:56.050Z,4.55
2023-02-01T06:26:24.144Z,4.58
2023-02-01T06:28:52.583Z,4.40
2023-02-01T06:31:20.678Z,4.61
2023-02-01T06:33:50.757Z,4.59
2023-02-01T06:36:19.949Z,4.11
2023-02-01T06:38:49.019Z,4.12
2023-02-01T06:41:17.839Z,4.33
2023-02-01T06:43:47.540Z,4.30
2023-02-01T06:46:16.173Z,4.29
2023-02-01T06:48:47.218Z,4.49
2023-02-01T06:51:33.281Z,4.64
2023-02-01T06:54:02.154Z,4.80
2023-02-01T06:56:30.351Z,4.99
2023-02-01T06:58:58.709Z,4.84
2023-02-01T07:01:26.827Z,4.92
2023-02-01T07:03:55.237Z,5.12
2023-02-01T07:06:23.855Z,5.14
2023-02-01T07:08:52.197Z,5.24
2023-02-01T07:11:20.331Z,5.28
2023-02-01T07:13:49.336Z,5.02
2023-02-01T07:16:20.308Z,5.17
2023-02-01T07:18:49.284Z,5.18
2023-02-01T07:21:17.168Z,5.26
2023-02-01T07:23:46.816Z,5.02
2023-02-01T07:26:16.132Z,5.42
2023-02-01T07:28:44.427Z,5.03
2023-02-01T07:31:20.068Z,5.05
2023-02-01T07:33:49.828Z,5.06
2023-02-01T07:36:19.063Z,5.15
2023-02-01T07:38:53.690Z,5.06
2023-02-01T07:41:23.327Z,5.50
2023-02-01T07:43:54.453Z,5.96
2023-02-01T07:46:22.750Z,5.76
2023-02-01T07:48:51.076Z,5.68
2023-02-01T07:51:19.307Z,5.84
2023-02-01T07:53:47.783Z,5.97
2023-02-01T07:56:18.700Z,5.84
2023-02-01T07:59:01.109Z,6.47
2023-02-01T08:01:30.506Z,6.33
2023-02-01T08:04:00.557Z,6.33
2023-02-01T08:06:32.546Z,6.56
2023-02-01T08:09:01.012Z,6.84
2023-02-01T08:11:29.170Z,6.86
2023-02-01T08:13:58.949Z,7.08
2023-02-01T08:16:27.144Z,7.02
2023-02-01T08:18:55.977Z,7.51
2023-02-01T08:21:30.308Z,7.88
2023-02-01T08:23:59.055Z,7.77
2023-02-01T08:26:27.705Z,7.77
2023-02-01T08:28:59.236Z,7.76
2023-02-01T08:31:29.914Z,8.01
2023-02-01T08:34:01.054Z,8.02
2023-02-01T08:36:31.790Z,8.31
2023-02-01T08:39:01.802Z,8.49
2023-02-01T08:41:31.294Z,8.30
2023-02-01T08:43:59.657Z,8.33
2023-02-01T08:46:28.715Z,8.55
2023-02-01T08:48:58.859Z,8.42
2023-02-01T08:51:27.172Z,8.48
2023-02-01T08:53:55.376Z,8.56
2023-02-01T08:56:23.451Z,8.63
2023-02-01T08:58:51.760Z,8.92
2023-02-01T09:01:19.882Z,9.14
2023-02-01T09:03:49.228Z,9.84
2023-02-01T09:06:17.557Z,9.51
2023-02-01T09:08:46.081Z,10.09
2023-02-01T09:11:18.499Z,10.02
2023-02-01T09:13:48.233Z,10.15
2023-02-01T09:16:16.894Z,9.96
2023-02-01T09:18:56.098Z,10.22
2023-02-01T09:21:30.647Z,10.19
2023-02-01T09:24:00.140Z,10.33
2023-02-01T09:26:32.969Z,10.44
2023-02-01T09:29:02.247Z,10.67
2023-02-01T09:31:31.726Z,10.46
2023-02-01T09:34:00.263Z,10.64
2023-02-01T09:36:30.218Z,10.76
2023-02-01T09:39:01.133Z,10.58
2023-02-01T09:41:39.109Z,10.68
2023-02-01T09:44:19.738Z,10.38
2023-02-01T09:46:48.442Z,10.72
2023-02-01T09:49:23.618Z,11.64
2023-02-01T09:51:54.445Z,10.94
2023-02-01T09:54:42.662Z,11.25
2023-02-01T09:57:39.629Z,11.65
2023-02-01T10:00:19.611Z,11.71
2023-02-01T10:02:47.737Z,11.86
2023-02-01T10:05:21.878Z,12.12
2023-02-01T10:08:02.439Z,12.41
2023-02-01T10:10:41.008Z,11.79
2023-02-01T10:13:14.965Z,11.99
2023-02-01T10:16:01.572Z,12.40
2023-02-01T10:18:40.548Z,11.54
2023-02-01T10:21:27.677Z,12.24
2023-02-01T10:24:15.941Z,12.34
2023-02-01T10:27:11.767Z,13.39
2023-02-01T10:29:43.439Z,14.05
2023-02-01T10:32:16.340Z,13.13
2023-02-01T10:34:50.020Z,12.95
2023-02-01T10:37:33.100Z,12.25
2023-02-01T10:40:15.978Z,13.01
2023-02-01T10:42:45.598Z,12.03
2023-02-01T10:45:22.987Z,12.33
2023-02-01T10:47:53.811Z,12.58
2023-02-01T10:51:00.724Z,13.63
2023-02-01T10:53:44.097Z,12.83
2023-02-01T10:56:14.393Z,13.07
2023-02-01T10:58:48.137Z,13.47
2023-02-01T11:01:22.600Z,13.12
2023-02-01T11:04:05.600Z,13.19
2023-02-01T11:06:49.079Z,13.12
2023-02-01T11:09:25.915Z,13.55
2023-02-01T11:11:59.788Z,13.78
2023-02-01T11:14:36.612Z,13.52
2023-02-01T11:17:18.745Z,13.45
2023-02-01T11:20:01.133Z,13.42
2023-02-01T11:22:31.328Z,14.24
2023-02-01T11:25:02.782Z,14.35
2023-02-01T11:27:34.743Z,14.13
2023-02-01T11:30:07.289Z,14.25
2023-02-01T11:32:35.612Z,14.44
2023-02-01T11:35:07.725Z,13.62
2023-02-01T11:37:40.971Z,15.11
2023-02-01T11:40:18.632Z,14.23
2023-02-01T11:43:01.693Z,13.68
2023-02-01T11:45:32.264Z,13.68
2023-02-01T11:48:01.691Z,13.72
2023-02-01T11:50:53.006Z,13.48
2023-02-01T11:53:28.947Z,13.93
2023-02-01T11:56:03.277Z,14.06
2023-02-01T11:58:52.247Z,13.90
2023-02-01T12:01:43.788Z,13.56
2023-02-01T12:04:33.302Z,15.11
2023-02-01T12:07:22.641Z,13.79
2023-02-01T12:09:57.846Z,13.85
2023-02-01T12:12:32.598Z,13.90
2023-02-01T12:15:18.590Z,14.31
2023-02-01T12:18:07.719Z,15.50
2023-02-01T12:21:00.828Z,14.22
2023-02-01T12:24:06.228Z,14.87
2023-02-01T12:26:45.711Z,15.01
2023-02-01T12:29:44.600Z,14.90
2023-02-01T12:32:34.688Z,15.19
2023-02-01T12:35:21.761Z,14.86
2023-02-01T12:37:57.160Z,14.95
2023-02-01T12:40:37.436Z,16.03
2023-02-01T12:43:34.210Z,15.72
2023-02-01T12:46:14.697Z,17.07
2023-02-01T12:48:54.828Z,17.37
2023-02-01T12:51:36.441Z,15.78
2023-02-01T12:54:13.257Z,17.11
2023-02-01T12:57:04.279Z,17.50
2023-02-01T12:59:57.069Z,17.69
2023-02-01T13:03:03.941Z,17.96
2023-02-01T13:05:53.697Z,18.88
2023-02-01T13:08:47.251Z,19.06
2023-02-01T13:11:32.581Z,19.27
2023-02-01T13:14:25.652Z,19.15
2023-02-01T13:17:04.779Z,17.78
2023-02-01T13:20:00.318Z,16.88
2023-02-01T13:22:49.013Z,15.60
2023-02-01T13:25:28.771Z,16.89
2023-02-01T13:28:03.660Z,16.32
2023-02-01T13:30:55.695Z,17.86
2023-02-01T13:33:55.302Z,19.01
2023-02-01T13:36:37.250Z,17.87
2023-02-01T13:39:14.072Z,18.64
2023-02-01T13:42:17.507Z,18.42
2023-02-01T13:44:57.978Z,17.95
2023-02-01T13:47:28.764Z,18.87
2023-02-01T13:50:01.494Z,18.01
2023-02-01T13:52:46.199Z,18.02
2023-02-01T13:55:14.136Z,18.65
2023-02-01T13:57:47.731Z,16.61
2023-02-01T14:00:31.830Z,17.18
2023-02-01T14:03:03.505Z,16.83
2023-02-01T14:05:31.705Z,17.97
2023-02-01T14:08:14.792Z,17.27
2023-02-01T14:11:01.325Z,17.71
2023-02-01T14:13:31.283Z,17.06
2023-02-01T14:16:05.239Z,17.34
2023-02-01T14:18:36.501Z,17.75
2023-02-01T14:21:22.965Z,18.37
2023-02-01T14:23:55.171Z,18.81
2023-02-01T14:26:29.431Z,18.95
2023-02-01T14:29:20.040Z,18.84
2023-02-01T14:31:51.409Z,17.55
2023-02-01T14:34:28.894Z,17.40
2023-02-01T14:37:10.089Z,18.13
2023-02-01T14:39:47.928Z,17.77
2023-02-01T14:42:30.874Z,17.07
2023-02-01T14:45:24.616Z,16.64
2023-02-01T14:48:08.223Z,16.67
2023-02-01T14:50:42.040Z,16.13
2023-02-01T14:53:10.057Z,16.47
2023-02-01T14:55:44.307Z,16.65
2023-02-01T14:58:37.650Z,18.16
2023-02-01T15:01:25.324Z,17.76
2023-02-01T15:04:06.689Z,18.10
2023-02-01T15:06:51.660Z,18.65
2023-02-01T15:09:39.054Z,19.18
2023-02-01T15:12:13.472Z,19.01
2023-02-01T15:15:05.480Z,18.56
2023-02-01T15:17:35.430Z,18.22
2023-02-01T15:20:17.173Z,17.94
2023-02-01T15:23:20.012Z,18.61
2023-02-01T15:25:48.094Z,18.65
2023-02-01T15:28:18.021Z,18.83
2023-02-01T15:30:59.733Z,17.43
2023-02-01T15:33:30.333Z,17.38
2023-02-01T15:36:07.564Z,16.46
2023-02-01T15:38:41.695Z,16.34
2023-02-01T15:41:17.052Z,16.06
2023-02-01T15:43:48.391Z,15.63
2023-02-01T15:46:22.486Z,15.99
2023-02-01T15:48:54.858Z,14.88
2023-02-01T15:51:29.834Z,14.24
2023-02-01T15:54:02.654Z,14.05
2023-02-01T15:56:39.585Z,13.98
2023-02-01T15:59:18.569Z,13.71
2023-02-01T16:01:47.314Z,13.51
2023-02-01T16:04:22.823Z,13.38
2023-02-01T16:06:59.028Z,13.22
2023-02-01T16:09:40.202Z,13.21
2023-02-01T16:12:43.550Z,12.83
2023-02-01T16:15:11.851Z,12.91
2023-02-01T16:17:39.999Z,12.52
2023-02-01T16:20:08.886Z,12.90
2023-02-01T16:22:36.963Z,13.35
2023-02-01T16:25:05.566Z,13.24
2023-02-01T16:27:33.553Z,13.16
2023-02-01T16:30:01.851Z,13.11
2023-02-01T16:32:31.405Z,12.89
2023-02-01T16:34:59.951Z,12.99
2023-02-01T16:37:29.245Z,12.77
2023-02-01T16:39:57.595Z,12.74
2023-02-01T16:42:25.645Z,12.62
2023-02-01T16:44:53.923Z,12.46
2023-02-01T16:47:24.066Z,12.35
2023-02-01T16:49:53.031Z,12.39
2023-02-01T16:52:23.936Z,12.45
2023-02-01T16:54:54.033Z,12.15
2023-02-01T16:57:27.116Z,12.17
2023-02-01T16:59:55.456Z,12.05
2023-02-01T17:02:25.038Z,11.93
2023-02-01T17:04:53.444Z,11.99
2023-02-01T17:07:21.602Z,12.01
2023-02-01T17:09:49.884Z,11.90
2023-02-01T17:12:27.135Z,11.72
2023-02-01T17:14:55.725Z,11.92
2023-02-01T17:17:37.774Z,11.75
2023-02-01T17:20:07.698Z,11.44
2023-02-01T17:22:35.733Z,11.43
2023-02-01T17:25:07.267Z,11.62
2023-02-01T17:27:35.664Z,11.46
2023-02-01T17:30:04.490Z,11.35
2023-02-01T17:32:32.540Z,11.34
2023-02-01T17:35:01.256Z,11.17
2023-02-01T17:37:32.094Z,11.18
2023-02-01T17:40:01.356Z,11.36
2023-02-01T17:42:30.947Z,11.23
2023-02-01T17:45:02.750Z,11.08
2023-02-01T17:47:30.763Z,10.88
2023-02-01T17:49:59.095Z,10.86
2023-02-01T17:52:27.101Z,10.79
2023-02-01T17:54:55.499Z,10.81
2023-02-01T17:57:23.566Z,10.66
2023-02-01T17:59:51.876Z,10.80
2023-02-01T18:02:23.388Z,10.94
2023-02-01T18:04:52.248Z,10.76
2023-02-01T18:07:20.372Z,10.67
2023-02-01T18:09:48.696Z,10.65
2023-02-01T18:12:23.251Z,10.58
2023-02-01T18:14:51.751Z,10.43
2023-02-01T18:17:20.331Z,10.53
2023-02-01T18:19:48.688Z,10.63
2023-02-01T18:22:24.330Z,10.56
2023-02-01T18:24:52.851Z,10.54
2023-02-01T18:27:20.801Z,10.43
2023-02-01T18:29:49.155Z,10.37
2023-02-01T18:32:17.128Z,10.33
2023-02-01T18:34:45.465Z,10.29
2023-02-01T18:37:13.644Z,10.26
2023-02-01T18:39:42.031Z,10.17
2023-02-01T18:42:11.590Z,10.21
2023-02-01T18:44:39.951Z,10.32
2023-02-01T18:47:08.196Z,10.18
2023-02-01T18:49:37.737Z,10.06
2023-02-01T18:52:06.841Z,9.99
2023-02-01T18:54:35.199Z,10.02
2023-02-01T18:57:04.682Z,10.05
2023-02-01T18:59:35.641Z,10.06
2023-02-01T19:02:04.546Z,10.13
2023-02-01T19:04:34.732Z,10.22
2023-02-01T19:07:05.792Z,9.92
2023-02-01T19:09:36.621Z,10.18
2023-02-01T19:12:05.179Z,9.72
2023-02-01T19:14:34.921Z,9.95
2023-02-01T19:17:02.861Z,9.63
2023-02-01T19:19:31.101Z,9.57
2023-02-01T19:22:01.451Z,9.53
2023-02-01T19:24:30.392Z,9.43
2023-02-01T19:26:59.039Z,9.62
2023-02-01T19:29:27.972Z,9.51
2023-02-01T19:31:56.120Z,9.41
2023-02-01T19:34:26.037Z,9.52
2023-02-01T19:36:55.258Z,9.58
2023-02-01T19:39:25.266Z,9.59
2023-02-01T19:41:53.241Z,9.62
2023-02-01T19:44:21.903Z,9.63
2023-02-01T19:46:50.280Z,9.47
2023-02-01T19:49:18.627Z,9.32
2023-02-01T19:51:48.886Z,9.46
2023-02-01T19:54:17.628Z,9.39
2023-02-01T19:56:45.933Z,9.31
2023-02-01T19:59:15.266Z,9.44
2023-02-01T20:01:46.878Z,9.27
2023-02-01T20:04:18.073Z,9.34
2023-02-01T20:06:49.536Z,9.23
2023-02-01T20:09:22.015Z,9.42
2023-02-01T20:11:50.768Z,9.40
2023-02-01T20:14:19.037Z,9.45
2023-02-01T20:16:47.551Z,9.41
2023-02-01T20:19:16.555Z,9.34
2023-02-01T20:21:44.600Z,9.17
2023-02-01T20:24:17.098Z,9.15
2023-02-01T20:26:46.510Z,9.05
2023-02-01T20:29:19.045Z,9.00
2023-02-01T20:31:47.015Z,9.02
2023-02-01T20:34:16.528Z,8.83
2023-02-01T20:36:44.433Z,8.80
2023-02-01T20:39:15.063Z,8.86
2023-02-01T20:41:43.946Z,8.68
2023-02-01T20:44:12.497Z,8.59
2023-02-01T20:46:40.536Z,8.52
2023-02-01T20:49:08.903Z,8.43
2023-02-01T20:51:36.824Z,8.53
2023-02-01T20:54:05.133Z,8.40
2023-02-01T20:56:33.064Z,8.27
2023-02-01T20:59:04.242Z,8.33
2023-02-01T21:01:32.197Z,8.13
2023-02-01T21:04:00.640Z,8.17
2023-02-01T21:06:28.658Z,8.29
2023-02-01T21:08:59.112Z,8.35
2023-02-01T21:11:27.353Z,8.27
2023-02-01T21:13:55.551Z,8.24
2023-02-01T21:16:23.682Z,8.09
2023-02-01T21:18:55.889Z,7.98
2023-02-01T21:21:26.327Z,7.90
2023-02-01T21:23:57.150Z,7.95
2023-02-01T21:26:27.126Z,8.20
2023-02-01T21:28:56.953Z,8.19
2023-02-01T21:31:26.035Z,7.96
2023-02-01T21:33:56.722Z,7.68
2023-02-01T21:36:25.285Z,7.45
2023-02-01T21:38:55.311Z,7.24
2023-02-01T21:41:43.985Z,7.03
2023-02-01T21:44:14.878Z,7.18
2023-02-01T21:46:44.369Z,7.29
2023-02-01T21:49:15.276Z,7.24
2023-02-01T21:51:43.685Z,7.47
2023-02-01T21:54:12.378Z,7.37
2023-02-01T21:56:41.286Z,7.46
2023-02-01T21:59:13.522Z,7.33
2023-02-01T22:01:42.596Z,7.46
2023-02-01T22:04:11.476Z,7.38
2023-02-01T22:06:46.894Z,7.46
2023-02-01T22:09:23.275Z,7.30
2023-02-01T22:11:53.322Z,7.62
2023-02-01T22:14:22.627Z,7.60
2023-02-01T22:16:53.039Z,7.28
2023-02-01T22:19:22.629Z,7.32
2023-02-01T22:21:50.750Z,7.21
2023-02-01T22:24:22.995Z,7.48
2023-02-01T22:26:51.241Z,7.32
2023-02-01T22:29:23.957Z,7.12
2023-02-01T22:31:51.999Z,7.23
2023-02-01T22:34:22.496Z,7.12
2023-02-01T22:36:50.469Z,7.14
2023-02-01T22:39:18.810Z,7.05
2023-02-01T22:41:46.904Z,7.08
2023-02-01T22:44:15.395Z,7.05
2023-02-01T22:46:43.422Z,7.11
2023-02-01T22:49:11.999Z,7.14
2023-02-01T22:51:40.254Z,7.06
2023-02-01T22:54:21.673Z,6.93
2023-02-01T22:56:50.232Z,7.03
2023-02-01T22:59:18.743Z,6.89
2023-02-01T23:01:46.886Z,7.05
2023-02-01T23:04:16.096Z,6.89
2023-02-01T23:06:44.205Z,6.88
2023-02-01T23:09:19.047Z,6.98
2023-02-01T23:11:47.221Z,7.16
2023-02-01T23:14:16.776Z,7.32
2023-02-01T23:16:46.201Z,7.10
2023-02-01T23:19:14.645Z,6.92
2023-02-01T23:21:43.027Z,6.99
2023-02-01T23:24:11.441Z,7.04
2023-02-01T23:26:40.131Z,6.93
2023-02-01T23:29:16.444Z,6.96
2023-02-01T23:31:44.465Z,6.93
2023-02-01T23:34:12.901Z,7.10
2023-02-01T23:36:40.962Z,6.88
2023-02-01T23:39:09.282Z,7.01
2023-02-01T23:41:37.221Z,6.81
2023-02-01T23:44:05.832Z,6.82
2023-02-01T23:46:39.703Z,6.73
2023-02-01T23:49:09.722Z,6.91
2023-02-01T23:51:37.866Z,6.94
2023-02-01T23:54:07.901Z,6.96
2023-02-01T23:56:39.865Z,6.84
2023-02-01T23:59:14.783Z,6.88
